createdAt,value
2019-01-29T00:00:07.570Z,6.17
2019-01-29T00:02:47.598Z,7.00
2019-01-29T00:05:27.775Z,7.10
2019-01-29T00:08:07.789Z,7.10
2019-01-29T00:10:47.784Z,7.22
2019-01-29T00:13:28.059Z,7.85
2019-01-29T00:16:08.113Z,8.05
2019-01-29T00:18:48.092Z,7.72
2019-01-29T00:21:28.019Z,7.30
2019-01-29T00:24:08.072Z,8.53
2019-01-29T00:26:48.220Z,8.43
2019-01-29T00:29:28.215Z,7.25
2019-01-29T00:32:08.259Z,8.00
2019-01-29T00:34:48.355Z,7.28
2019-01-29T00:37:28.500Z,7.77
2019-01-29T00:40:08.537Z,7.08
2019-01-29T00:42:48.608Z,7.58
2019-01-29T00:45:28.365Z,7.12
2019-01-29T00:48:08.551Z,7.92
2019-01-29T00:50:48.905Z,7.17
2019-01-29T00:53:28.896Z,7.80
2019-01-29T00:56:09.027Z,8.33
2019-01-29T00:58:49.161Z,6.80
2019-01-29T01:01:29.194Z,6.97
2019-01-29T01:04:09.176Z,7.10
2019-01-29T01:06:49.201Z,8.38
2019-01-29T01:09:29.371Z,7.10
2019-01-29T01:12:09.476Z,6.73
2019-01-29T01:14:49.522Z,7.47
2019-01-29T01:17:29.519Z,7.23
2019-01-29T01:20:09.802Z,6.28
2019-01-29T01:22:51.432Z,6.87
2019-01-29T01:25:32.138Z,6.37
2019-01-29T01:28:12.377Z,6.73
2019-01-29T01:30:52.148Z,7.10
2019-01-29T01:33:32.337Z,7.47
2019-01-29T01:36:12.394Z,7.67
2019-01-29T01:38:52.427Z,7.20
2019-01-29T01:41:32.485Z,6.87
2019-01-29T01:44:12.600Z,6.30
2019-01-29T01:46:52.629Z,7.57
2019-01-29T01:49:32.592Z,6.93
2019-01-29T01:52:12.577Z,6.60
2019-01-29T01:54:52.704Z,6.53
2019-01-29T01:57:32.517Z,7.20
2019-01-29T02:00:12.481Z,7.30
2019-01-29T02:02:52.525Z,6.27
2019-01-29T02:05:32.536Z,6.55
2019-01-29T02:08:12.634Z,7.57
2019-01-29T02:10:52.717Z,7.85
2019-01-29T02:13:32.872Z,6.78
2019-01-29T02:16:12.784Z,6.90
2019-01-29T02:18:52.829Z,6.27
2019-01-29T02:21:32.571Z,7.20
2019-01-29T02:24:12.518Z,6.47
2019-01-29T02:26:52.541Z,6.37
2019-01-29T02:29:32.609Z,6.05
2019-01-29T02:32:12.502Z,6.20
2019-01-29T02:34:52.510Z,6.03
2019-01-29T02:37:32.606Z,5.93
2019-01-29T02:40:12.730Z,6.47
2019-01-29T02:42:52.961Z,5.83
2019-01-29T02:45:32.806Z,5.80
2019-01-29T02:48:12.653Z,6.07
2019-01-29T02:50:52.741Z,6.13
2019-01-29T02:53:33.047Z,5.67
2019-01-29T02:56:12.986Z,6.07
2019-01-29T02:58:53.155Z,5.90
2019-01-29T03:01:33.082Z,5.92
2019-01-29T03:04:13.386Z,6.25
2019-01-29T03:06:53.298Z,5.70
2019-01-29T03:09:33.173Z,5.30
2019-01-29T03:12:13.234Z,5.93
2019-01-29T03:14:53.297Z,6.78
2019-01-29T03:17:33.393Z,5.95
2019-01-29T03:20:13.283Z,5.95
2019-01-29T03:22:53.372Z,6.20
2019-01-29T03:25:33.410Z,5.92
2019-01-29T03:28:13.196Z,5.30
2019-01-29T03:30:53.420Z,6.08
2019-01-29T03:33:33.222Z,5.72
2019-01-29T03:36:13.404Z,5.58
2019-01-29T03:38:53.552Z,5.85
2019-01-29T03:41:34.109Z,5.83
2019-01-29T03:44:14.056Z,6.25
2019-01-29T03:46:54.289Z,5.35
2019-01-29T03:49:34.175Z,5.75
2019-01-29T03:52:14.232Z,5.12
2019-01-29T03:54:54.154Z,4.60
2019-01-29T03:57:34.004Z,4.67
2019-01-29T04:00:13.882Z,5.25
2019-01-29T04:02:53.870Z,4.85
2019-01-29T04:05:33.884Z,4.65
2019-01-29T04:08:13.892Z,4.67
2019-01-29T04:10:54.092Z,5.78
2019-01-29T04:13:34.284Z,6.50
2019-01-29T04:16:14.240Z,5.62
2019-01-29T04:18:54.301Z,4.65
2019-01-29T04:21:34.218Z,4.90
2019-01-29T04:24:14.122Z,5.08
2019-01-29T04:26:54.025Z,4.80
2019-01-29T04:29:34.092Z,4.30
2019-01-29T04:32:14.160Z,4.62
2019-01-29T04:34:54.249Z,5.10
2019-01-29T04:37:34.395Z,4.78
2019-01-29T04:40:14.574Z,5.67
2019-01-29T04:42:54.619Z,5.40
2019-01-29T04:45:34.701Z,5.30
2019-01-29T04:48:15.245Z,5.08
2019-01-29T04:50:55.221Z,4.67
2019-01-29T04:53:35.278Z,5.12
2019-01-29T04:56:15.289Z,5.00
2019-01-29T04:58:55.153Z,5.53
2019-01-29T05:01:35.151Z,5.15
2019-01-29T05:04:15.137Z,5.47
2019-01-29T05:06:55.346Z,5.75
2019-01-29T05:09:35.297Z,5.90
2019-01-29T05:12:15.409Z,5.87
2019-01-29T05:14:55.294Z,6.53
2019-01-29T05:17:35.387Z,6.37
2019-01-29T05:20:15.417Z,7.08
2019-01-29T05:22:55.614Z,7.12
2019-01-29T05:25:35.832Z,7.17
2019-01-29T05:28:16.146Z,7.70
2019-01-29T05:30:56.130Z,7.10
2019-01-29T05:33:36.271Z,7.25
2019-01-29T05:36:16.286Z,7.10
2019-01-29T05:38:56.586Z,7.12
2019-01-29T05:41:36.478Z,7.65
2019-01-29T05:44:16.770Z,6.62
2019-01-29T05:46:57.001Z,6.78
2019-01-29T05:49:37.216Z,5.97
2019-01-29T05:52:17.069Z,6.83
2019-01-29T05:54:57.269Z,6.10
2019-01-29T05:57:37.526Z,7.17
2019-01-29T06:00:17.971Z,6.30
2019-01-29T06:02:56.222Z,6.87
2019-01-29T06:05:43.322Z,6.47
2019-01-29T06:08:30.411Z,6.47
2019-01-29T06:11:17.520Z,6.55
2019-01-29T06:14:04.893Z,6.25
2019-01-29T06:16:51.998Z,4.97
2019-01-29T06:19:39.111Z,4.53
2019-01-29T06:22:19.092Z,5.40
2019-01-29T06:24:59.414Z,5.10
2019-01-29T06:27:39.590Z,4.70
2019-01-29T06:30:20.210Z,4.92
2019-01-29T06:33:00.795Z,4.67
2019-01-29T06:35:40.792Z,4.03
2019-01-29T06:38:20.710Z,5.17
2019-01-29T06:41:00.850Z,4.10
2019-01-29T06:43:40.805Z,5.60
2019-01-29T06:46:20.750Z,5.87
2019-01-29T06:49:00.708Z,6.53
2019-01-29T06:51:40.701Z,7.40
2019-01-29T06:54:22.867Z,7.17
2019-01-29T06:57:02.960Z,7.60
2019-01-29T06:59:42.858Z,8.43
2019-01-29T07:02:23.054Z,9.33
2019-01-29T07:05:03.157Z,7.92
2019-01-29T07:07:43.422Z,7.65
2019-01-29T07:10:23.417Z,8.48
2019-01-29T07:13:03.362Z,8.33
2019-01-29T07:18:54.775Z,8.55
2019-01-29T07:21:34.518Z,7.47
2019-01-29T07:24:14.561Z,7.75
2019-01-29T07:26:54.501Z,7.87
2019-01-29T07:29:34.340Z,7.27
2019-01-29T07:32:14.444Z,7.00
2019-01-29T07:34:54.452Z,7.42
2019-01-29T07:37:34.291Z,6.55
2019-01-29T07:40:14.516Z,6.53
2019-01-29T07:42:54.317Z,7.90
2019-01-29T07:45:34.334Z,7.70
2019-01-29T07:48:14.411Z,6.30
2019-01-29T07:50:54.751Z,6.97
2019-01-29T07:53:34.736Z,8.78
2019-01-29T07:56:14.686Z,10.00
2019-01-29T07:58:54.726Z,8.13
2019-01-29T08:01:34.946Z,8.07
2019-01-29T08:04:14.984Z,8.13
2019-01-29T08:06:55.063Z,7.97
2019-01-29T08:09:34.926Z,8.17
2019-01-29T08:12:15.065Z,7.33
2019-01-29T08:14:55.090Z,6.83
2019-01-29T08:17:35.086Z,7.10
2019-01-29T08:20:15.034Z,8.73
2019-01-29T08:22:54.970Z,10.88
2019-01-29T08:25:34.674Z,8.63
2019-01-29T08:28:14.733Z,9.50
2019-01-29T08:30:54.811Z,9.15
2019-01-29T08:33:34.853Z,8.70
2019-01-29T08:36:14.831Z,8.57
2019-01-29T08:38:54.501Z,9.27
2019-01-29T08:41:34.404Z,8.77
2019-01-29T08:44:14.459Z,8.23
2019-01-29T08:46:54.393Z,9.27
2019-01-29T08:49:34.241Z,10.50
2019-01-29T08:52:14.239Z,11.10
2019-01-29T08:54:54.153Z,10.33
2019-01-29T08:57:34.254Z,10.27
2019-01-29T09:00:14.085Z,10.17
2019-01-29T09:02:54.192Z,9.70
2019-01-29T09:05:34.216Z,9.63
2019-01-29T09:08:14.337Z,11.60
2019-01-29T09:10:54.330Z,10.57
2019-01-29T09:13:34.368Z,10.70
2019-01-29T09:16:14.449Z,11.07
2019-01-29T09:18:54.391Z,11.77
2019-01-29T09:21:34.280Z,12.10
2019-01-29T09:24:14.056Z,11.03
2019-01-29T09:26:54.398Z,10.73
2019-01-29T09:29:34.469Z,11.00
2019-01-29T09:32:14.894Z,11.43
2019-01-29T09:34:55.013Z,10.20
2019-01-29T09:37:35.178Z,11.50
2019-01-29T09:40:15.014Z,11.10
2019-01-29T09:42:54.940Z,11.93
2019-01-29T09:45:34.686Z,11.30
2019-01-29T09:48:15.059Z,11.23
2019-01-29T09:50:54.993Z,10.30
2019-01-29T09:53:35.124Z,10.13
2019-01-29T09:56:15.206Z,11.00
2019-01-29T09:58:55.203Z,10.77
2019-01-29T10:01:35.180Z,10.40
2019-01-29T10:04:15.122Z,11.40
2019-01-29T10:06:55.237Z,11.10
2019-01-29T10:09:35.173Z,11.63
2019-01-29T10:12:15.372Z,10.50
2019-01-29T10:14:55.662Z,12.00
2019-01-29T10:17:36.438Z,10.30
2019-01-29T10:20:16.229Z,10.93
2019-01-29T10:22:56.267Z,10.47
2019-01-29T10:25:37.833Z,10.07
2019-01-29T10:28:18.517Z,10.03
2019-01-29T10:30:58.412Z,9.83
2019-01-29T10:33:38.698Z,10.47
2019-01-29T10:36:06.592Z,10.40
2019-01-29T10:38:34.231Z,9.80
2019-01-29T10:41:01.941Z,9.13
2019-01-29T10:43:29.590Z,10.03
2019-01-29T10:45:57.276Z,8.93
2019-01-29T10:48:24.900Z,9.00
2019-01-29T10:50:52.785Z,8.43
2019-01-29T10:53:20.449Z,8.07
2019-01-29T10:55:48.134Z,8.67
2019-01-29T10:58:15.798Z,8.60
2019-01-29T11:00:43.421Z,8.87
2019-01-29T11:03:11.197Z,9.03
2019-01-29T11:05:38.978Z,8.10
2019-01-29T11:08:06.779Z,8.83
2019-01-29T11:10:34.439Z,8.43
2019-01-29T11:13:02.101Z,8.77
2019-01-29T11:15:32.466Z,9.77
2019-01-29T11:18:00.084Z,9.83
2019-01-29T11:20:27.898Z,13.17
2019-01-29T11:22:55.567Z,9.70
2019-01-29T11:25:25.070Z,9.30
2019-01-29T11:27:53.162Z,10.67
2019-01-29T11:30:23.161Z,10.93
2019-01-29T11:32:50.860Z,10.67
2019-01-29T11:35:18.542Z,10.97
2019-01-29T11:37:46.196Z,9.27
2019-01-29T11:40:19.288Z,9.70
2019-01-29T11:42:46.953Z,12.13
2019-01-29T11:45:38.336Z,10.77
2019-01-29T11:48:06.047Z,11.20
2019-01-29T11:50:33.989Z,10.77
2019-01-29T11:53:01.812Z,10.20
2019-01-29T11:55:29.614Z,9.57
2019-01-29T11:57:57.304Z,9.63
2019-01-29T12:00:49.832Z,10.37
2019-01-29T12:03:17.554Z,10.70
2019-01-29T12:05:45.227Z,11.07
2019-01-29T12:08:12.958Z,9.97
2019-01-29T12:10:40.752Z,9.90
2019-01-29T12:13:08.442Z,9.87
2019-01-29T12:15:36.128Z,12.47
2019-01-29T12:18:04.622Z,11.63
2019-01-29T12:20:32.345Z,14.77
2019-01-29T12:23:00.180Z,14.07
2019-01-29T12:25:27.847Z,11.43
2019-01-29T12:27:55.523Z,12.07
2019-01-29T12:30:23.400Z,12.90
2019-01-29T12:32:51.407Z,12.97
2019-01-29T12:35:19.445Z,14.07
2019-01-29T12:37:47.143Z,15.63
2019-01-29T12:40:14.820Z,14.67
2019-01-29T12:42:42.503Z,14.43
2019-01-29T12:45:10.592Z,14.03
2019-01-29T12:47:38.231Z,13.93
2019-01-29T12:50:08.141Z,12.63
2019-01-29T12:53:01.384Z,12.63
2019-01-29T12:55:29.055Z,11.67
2019-01-29T12:57:57.137Z,12.67
2019-01-29T13:00:26.985Z,11.73
2019-01-29T13:02:54.675Z,13.40
2019-01-29T13:05:22.339Z,12.83
2019-01-29T13:07:50.025Z,15.00
2019-01-29T13:10:19.101Z,12.77
2019-01-29T13:12:46.977Z,13.37
2019-01-29T13:15:17.085Z,13.00
2019-01-29T13:17:44.733Z,13.67
2019-01-29T13:20:12.437Z,13.57
2019-01-29T13:22:40.173Z,12.23
2019-01-29T13:25:08.437Z,12.47
2019-01-29T13:27:36.135Z,12.87
2019-01-29T13:30:05.706Z,13.03
2019-01-29T13:32:33.383Z,13.53
2019-01-29T13:35:01.130Z,13.37
2019-01-29T13:37:28.809Z,14.17
2019-01-29T13:39:56.482Z,14.20
2019-01-29T13:42:24.211Z,15.37
2019-01-29T13:44:51.844Z,13.40
2019-01-29T13:47:19.616Z,13.90
2019-01-29T13:49:47.441Z,14.37
2019-01-29T13:52:15.067Z,13.80
2019-01-29T13:54:42.713Z,12.57
2019-01-29T13:57:10.597Z,12.63
2019-01-29T13:59:38.254Z,12.97
2019-01-29T14:02:05.941Z,11.50
2019-01-29T14:04:33.656Z,11.93
2019-01-29T14:07:01.318Z,10.93
2019-01-29T14:09:29.006Z,12.37
2019-01-29T14:11:56.709Z,13.47
2019-01-29T14:14:26.155Z,12.30
2019-01-29T14:16:53.796Z,10.53
2019-01-29T14:19:21.539Z,11.83
2019-01-29T14:21:49.248Z,10.87
2019-01-29T14:24:16.965Z,10.87
2019-01-29T14:26:47.784Z,12.23
2019-01-29T14:29:14.157Z,11.17
2019-01-29T14:31:41.875Z,11.87
2019-01-29T14:34:09.701Z,11.33
2019-01-29T14:36:37.941Z,10.33
2019-01-29T14:39:24.601Z,11.30
2019-01-29T14:41:52.425Z,10.93
2019-01-29T14:44:26.180Z,10.47
2019-01-29T14:46:53.948Z,10.53
2019-01-29T14:49:21.632Z,9.70
2019-01-29T14:51:49.305Z,11.53
2019-01-29T14:54:17.186Z,10.77
2019-01-29T14:56:44.851Z,10.93
2019-01-29T14:59:12.538Z,10.50
2019-01-29T15:01:40.231Z,11.17
2019-01-29T15:04:07.899Z,10.73
2019-01-29T15:06:35.784Z,11.60
2019-01-29T15:09:07.493Z,10.90
2019-01-29T15:11:35.177Z,12.43
2019-01-29T15:14:02.956Z,12.33
2019-01-29T15:16:50.097Z,12.13
2019-01-29T15:19:20.500Z,13.30
2019-01-29T15:21:48.783Z,12.53
2019-01-29T15:24:16.616Z,11.83
2019-01-29T15:26:44.269Z,11.77
2019-01-29T15:29:11.950Z,12.50
2019-01-29T15:31:39.657Z,13.30
2019-01-29T15:34:07.317Z,15.03
2019-01-29T15:36:34.984Z,13.50
2019-01-29T15:39:04.711Z,14.43
2019-01-29T15:41:32.375Z,14.77
2019-01-29T15:44:00.055Z,13.77
2019-01-29T15:46:27.759Z,13.00
2019-01-29T15:48:55.423Z,13.13
2019-01-29T15:51:23.068Z,12.53
2019-01-29T15:53:50.778Z,12.17
2019-01-29T15:56:18.422Z,12.37
2019-01-29T15:58:46.145Z,12.73
2019-01-29T16:01:13.796Z,12.40
2019-01-29T16:03:41.506Z,11.73
2019-01-29T16:06:09.191Z,11.77
2019-01-29T16:08:36.868Z,10.70
2019-01-29T16:11:04.560Z,12.47
2019-01-29T16:13:32.218Z,12.10
2019-01-29T16:15:59.913Z,12.30
2019-01-29T16:18:27.731Z,11.97
2019-01-29T16:20:55.401Z,12.87
2019-01-29T16:23:23.028Z,14.03
2019-01-29T16:25:50.825Z,13.63
2019-01-29T16:28:18.477Z,11.83
2019-01-29T16:30:46.129Z,12.20
2019-01-29T16:33:13.786Z,11.33
2019-01-29T16:35:41.665Z,11.53
2019-01-29T16:38:09.420Z,12.83
2019-01-29T16:40:37.339Z,11.07
2019-01-29T16:43:04.991Z,11.83
2019-01-29T16:45:33.175Z,11.30
2019-01-29T16:48:01.804Z,11.48
2019-01-29T16:50:29.709Z,12.50
2019-01-29T16:52:57.721Z,12.40
2019-01-29T16:55:25.581Z,15.30
2019-01-29T16:57:53.581Z,12.03
2019-01-29T17:00:26.077Z,14.85
2019-01-29T17:02:53.956Z,12.50
2019-01-29T17:05:21.661Z,13.30
2019-01-29T17:07:49.326Z,17.75
2019-01-29T17:10:17.535Z,15.18
2019-01-29T17:12:45.387Z,15.13
2019-01-29T17:15:16.440Z,15.28
2019-01-29T17:17:44.133Z,18.07
2019-01-29T17:20:15.001Z,17.12
2019-01-29T17:22:42.653Z,14.87
2019-01-29T17:25:10.436Z,15.78
2019-01-29T17:27:40.357Z,18.48
2019-01-29T17:30:12.506Z,17.70
2019-01-29T17:32:40.208Z,13.72
2019-01-29T17:35:07.975Z,13.40
2019-01-29T17:37:35.669Z,11.28
2019-01-29T17:40:05.032Z,11.68
2019-01-29T17:42:32.707Z,10.45
2019-01-29T17:45:00.412Z,10.40
2019-01-29T17:47:28.089Z,10.85
2019-01-29T17:49:55.795Z,11.38
2019-01-29T17:52:23.493Z,10.95
2019-01-29T17:54:51.178Z,12.70
2019-01-29T17:57:18.835Z,11.78
2019-01-29T17:59:46.501Z,14.03
2019-01-29T18:02:14.160Z,12.93
2019-01-29T18:04:41.864Z,11.60
2019-01-29T18:07:09.547Z,12.80
2019-01-29T18:09:37.192Z,12.78
2019-01-29T18:12:04.932Z,11.60
2019-01-29T18:14:32.570Z,11.78
2019-01-29T18:17:00.321Z,10.98
2019-01-29T18:19:27.992Z,12.73
2019-01-29T18:21:57.012Z,11.63
2019-01-29T18:24:24.989Z,11.57
2019-01-29T18:26:52.693Z,10.23
2019-01-29T18:29:20.385Z,10.75
2019-01-29T18:31:48.188Z,10.05
2019-01-29T18:34:23.787Z,8.65
2019-01-29T18:36:51.493Z,8.85
2019-01-29T18:39:19.206Z,9.75
2019-01-29T18:41:46.864Z,12.90
2019-01-29T18:44:15.432Z,13.18
2019-01-29T18:46:43.167Z,11.60
2019-01-29T18:49:10.838Z,10.40
2019-01-29T18:51:38.941Z,9.43
2019-01-29T18:54:09.773Z,10.40
2019-01-29T18:56:37.477Z,9.88
2019-01-29T18:59:05.143Z,9.85
2019-01-29T19:01:32.844Z,9.70
2019-01-29T19:04:00.550Z,8.20
2019-01-29T19:06:28.240Z,8.05
2019-01-29T19:08:55.941Z,8.25
2019-01-29T19:11:23.665Z,8.10
2019-01-29T19:13:51.328Z,7.87
2019-01-29T19:16:19.073Z,8.50
2019-01-29T19:18:46.761Z,8.08
2019-01-29T19:21:14.432Z,7.72
2019-01-29T19:23:42.157Z,7.72
2019-01-29T19:26:09.822Z,7.62
2019-01-29T19:28:37.521Z,7.62
2019-01-29T19:31:05.185Z,8.83
2019-01-29T19:33:32.863Z,11.00
2019-01-29T19:36:00.553Z,9.48
2019-01-29T19:38:28.398Z,8.33
2019-01-29T19:40:56.100Z,10.00
2019-01-29T19:43:23.851Z,10.40
2019-01-29T19:45:51.519Z,8.90
2019-01-29T19:48:19.176Z,9.38
2019-01-29T19:50:46.902Z,8.38
2019-01-29T19:53:14.530Z,8.18
2019-01-29T19:55:42.428Z,7.78
2019-01-29T19:58:10.065Z,8.23
2019-01-29T20:00:40.205Z,8.45
2019-01-29T20:03:07.992Z,8.33
2019-01-29T20:05:35.793Z,8.78
2019-01-29T20:08:03.819Z,8.53
2019-01-29T20:10:31.500Z,7.95
2019-01-29T20:12:59.270Z,9.40
2019-01-29T20:15:27.068Z,9.15
2019-01-29T20:17:55.024Z,8.73
2019-01-29T20:20:28.169Z,8.85
2019-01-29T20:22:55.969Z,9.43
2019-01-29T20:25:23.646Z,9.23
2019-01-29T20:27:53.065Z,9.23
2019-01-29T20:30:23.201Z,8.88
2019-01-29T20:32:53.433Z,9.55
2019-01-29T20:35:21.263Z,10.15
2019-01-29T20:37:48.986Z,11.12
2019-01-29T20:40:17.408Z,10.50
2019-01-29T20:42:45.049Z,12.78
2019-01-29T20:45:13.253Z,12.65
2019-01-29T20:47:40.900Z,10.60
2019-01-29T20:50:15.124Z,9.88
2019-01-29T20:52:42.767Z,8.78
2019-01-29T20:55:11.754Z,10.13
2019-01-29T20:57:39.409Z,8.83
2019-01-29T21:00:14.912Z,9.33
2019-01-29T21:02:42.559Z,9.68
2019-01-29T21:05:10.453Z,9.43
2019-01-29T21:07:38.121Z,9.30
2019-01-29T21:10:07.995Z,9.50
2019-01-29T21:12:35.637Z,9.25
2019-01-29T21:15:03.976Z,10.45
2019-01-29T21:17:31.662Z,9.68
2019-01-29T21:19:59.383Z,9.48
2019-01-29T21:22:27.020Z,8.58
2019-01-29T21:24:54.696Z,9.15
2019-01-29T21:27:22.372Z,9.73
2019-01-29T21:29:50.060Z,8.48
2019-01-29T21:32:17.821Z,8.15
2019-01-29T21:34:45.422Z,9.70
2019-01-29T21:37:13.153Z,7.53
2019-01-29T21:39:40.859Z,8.48
2019-01-29T21:42:08.532Z,9.10
2019-01-29T21:44:36.239Z,9.78
2019-01-29T21:47:03.967Z,8.23
2019-01-29T21:49:31.604Z,9.28
2019-01-29T21:51:59.405Z,8.93
2019-01-29T21:54:27.108Z,10.05
2019-01-29T21:56:54.788Z,8.98
2019-01-29T21:59:22.417Z,13.53
2019-01-29T22:01:50.097Z,12.47
2019-01-29T22:04:17.779Z,12.30
2019-01-29T22:06:45.436Z,10.35
2019-01-29T22:09:13.153Z,9.08
2019-01-29T22:11:40.822Z,9.35
2019-01-29T22:14:08.536Z,9.90
2019-01-29T22:16:36.187Z,9.53
2019-01-29T22:19:04.264Z,10.40
2019-01-29T22:21:31.928Z,9.60
2019-01-29T22:23:59.577Z,8.80
2019-01-29T22:26:27.281Z,11.70
2019-01-29T22:28:54.909Z,10.75
2019-01-29T22:31:22.636Z,9.38
2019-01-29T22:33:50.265Z,9.53
2019-01-29T22:36:17.884Z,11.53
2019-01-29T22:38:45.549Z,9.25
2019-01-29T22:41:13.321Z,10.18
2019-01-29T22:43:41.017Z,9.48
2019-01-29T22:46:08.661Z,9.78
2019-01-29T22:48:36.383Z,9.75
2019-01-29T22:51:04.237Z,9.63
2019-01-29T22:53:31.917Z,9.25
2019-01-29T22:55:59.595Z,9.70
2019-01-29T22:58:27.313Z,10.72
2019-01-29T23:01:20.256Z,10.88
2019-01-29T23:03:51.036Z,11.78
2019-01-29T23:06:27.994Z,11.20
2019-01-29T23:08:55.701Z,12.33
2019-01-29T23:11:23.346Z,11.38
2019-01-29T23:13:51.013Z,11.75
2019-01-29T23:16:18.793Z,11.10
2019-01-29T23:18:46.468Z,10.98
2019-01-29T23:21:14.289Z,9.95
2019-01-29T23:23:41.967Z,9.83
2019-01-29T23:26:09.655Z,10.00
2019-01-29T23:28:37.344Z,9.45
2019-01-29T23:31:05.281Z,9.48
2019-01-29T23:33:32.972Z,9.48
2019-01-29T23:36:00.687Z,9.00
2019-01-29T23:38:28.382Z,8.90
2019-01-29T23:40:56.055Z,8.00
2019-01-29T23:43:23.744Z,8.53
2019-01-29T23:45:51.396Z,8.48
2019-01-29T23:48:19.097Z,8.30
2019-01-29T23:50:46.742Z,7.87
2019-01-29T23:53:14.413Z,7.53
2019-01-29T23:55:42.074Z,7.67
2019-01-29T23:58:09.849Z,7.87
